Time;durP1;ratioP1;P1;durP2;ratioP2;P2;SDS_P1;SDS_P2;PMS_P1;PMS_P2;Temp;Humidity;BMP_temperature;BMP_pressure;BME280_temperature;BME280_humidity;BME280_pressure;Samples;Min_cycle;Max_cycle;Signal;HPM_P1;HPM_P2
2022/05/04 00:00:27;;;;;;;;;;;;;;;13.69;100.00;100006.66;5072346;28;20439;-58
2022/05/04 00:02:52;;;;;;;;;;;;;;;13.69;100.00;100009.34;5072299;28;20410;-58
2022/05/04 00:05:18;;;;;;;;;;;;;;;13.66;100.00;100009.44;5073636;28;19944;-58
2022/05/04 00:07:44;;;;;;;;;;;;;;;13.60;100.00;100009.75;5072901;28;19912;-58
2022/05/04 00:10:10;;;;;;;;;;;;;;;13.52;100.00;99999.41;5073384;28;20411;-58
2022/05/04 00:12:36;;;;;;;;;;;;;;;13.43;100.00;99994.47;5072873;28;20050;-58
2022/05/04 00:15:01;;;;;;;;;;;;;;;13.42;100.00;99997.19;5088255;28;19923;-58
2022/05/04 00:17:27;;;;;;;;;;;;;;;13.36;100.00;99992.97;5104311;28;19915;-58
2022/05/04 00:19:52;;;;;;;;;;;;;;;13.38;100.00;99995.63;5113547;28;19916;-58
2022/05/04 00:22:18;;;;;;;;;;;;;;;13.38;100.00;99998.28;5113204;28;19973;-58
2022/05/04 00:24:43;;;;;;;;;;;;;;;13.43;100.00;99994.47;5113515;28;19912;-58
2022/05/04 00:27:09;;;;;;;;;;;;;;;13.47;100.00;99992.53;5113293;28;19911;-58
2022/05/04 00:29:37;;;;;;;;;;;;;;;13.39;100.00;99986.66;5105625;28;19970;-58
2022/05/04 00:32:02;;;;;;;;;;;;;;;13.33;100.00;99989.59;5092721;28;19916;-58
2022/05/04 00:34:28;;;;;;;;;;;;;;;13.26;100.00;99985.47;5093284;28;20274;-58
2022/05/04 00:36:53;;;;;;;;;;;;;;;13.24;100.00;99982.88;5092724;28;19916;-58
2022/05/04 00:39:18;;;;;;;;;;;;;;;13.21;100.00;99988.34;5092798;28;19942;-58
2022/05/04 00:41:44;;;;;;;;;;;;;;;13.18;100.00;99991.13;5092493;28;20261;-58
2022/05/04 00:44:09;;;;;;;;;;;;;;;13.16;100.00;99988.53;5092515;28;19993;-58
2022/05/04 00:46:34;;;;;;;;;;;;;;;13.07;100.00;99983.59;5088995;28;19916;-58
2022/05/04 00:48:59;;;;;;;;;;;;;;;13.07;100.00;99994.28;5092529;28;20366;-58
2022/05/04 00:51:25;;;;;;;;;;;;;;;13.02;100.00;100001.63;5091727;28;19912;-58
2022/05/04 00:53:51;;;;;;;;;;;;;;;13.05;100.00;100000.59;5087354;28;19920;-58
2022/05/04 00:56:16;;;;;;;;;;;;;;;13.13;100.00;100007.34;5090621;28;19943;-58
2022/05/04 00:58:56;;;;;;;;;;;;;;;13.13;100.00;99999.34;5090564;28;20264;-58
2022/05/04 01:01:22;;;;;;;;;;;;;;;13.16;100.00;100001.88;5090878;28;19916;-58
2022/05/04 01:03:47;;;;;;;;;;;;;;;13.22;100.00;100014.09;5089855;28;19919;-58
2022/05/04 01:06:12;;;;;;;;;;;;;;;13.19;100.00;100011.56;5089632;28;19970;-58
2022/05/04 01:08:38;;;;;;;;;;;;;;;13.15;100.00;100013.50;5092255;28;19951;-58
2022/05/04 01:11:03;;;;;;;;;;;;;;;13.14;100.00;100016.25;5092331;28;19912;-58
2022/05/04 01:13:28;;;;;;;;;;;;;;;13.10;100.00;100025.31;5091725;28;20332;-58
2022/05/04 01:15:53;;;;;;;;;;;;;;;13.12;100.00;100013.63;5092336;28;19934;-58
2022/05/04 01:18:19;;;;;;;;;;;;;;;13.14;100.00;100013.56;5110372;28;19912;-58
2022/05/04 01:20:44;;;;;;;;;;;;;;;13.18;100.00;100016.03;5112338;28;19930;-58
2022/05/04 01:23:12;;;;;;;;;;;;;;;13.12;100.00;100013.63;5112011;28;20289;-58
2022/05/04 01:25:37;;;;;;;;;;;;;;;13.16;100.00;100015.22;5112523;28;19959;-58
2022/05/04 01:28:03;;;;;;;;;;;;;;;13.20;100.00;100008.84;5107313;28;19955;-58
2022/05/04 01:30:32;;;;;;;;;;;;;;;13.15;100.00;100013.50;5073459;28;19912;-58
2022/05/04 01:32:57;;;;;;;;;;;;;;;13.11;100.00;100008.38;5074491;28;19916;-58
2022/05/04 01:35:22;;;;;;;;;;;;;;;13.07;100.00;100007.63;5071881;28;20007;-58
2022/05/04 01:37:47;;;;;;;;;;;;;;;13.02;100.00;100006.94;5071693;28;20430;-58
2022/05/04 01:40:13;;;;;;;;;;;;;;;13.05;100.00;100003.28;5071865;28;19912;-58
2022/05/04 01:42:38;;;;;;;;;;;;;;;13.06;100.00;100003.19;5071397;28;19924;-58
2022/05/04 01:45:05;;;;;;;;;;;;;;;13.05;100.00;100000.59;5087015;28;19919;-58
2022/05/04 01:47:30;;;;;;;;;;;;;;;13.02;100.00;100006.94;5091608;28;20011;-58
2022/05/04 01:49:56;;;;;;;;;;;;;;;13.01;100.00;100007.03;5092168;28;19959;-58
2022/05/04 01:52:21;;;;;;;;;;;;;;;12.96;100.00;100007.16;5088776;28;19912;-58
2022/05/04 01:54:47;;;;;;;;;;;;;;;12.95;100.00;100015.25;5079509;28;19934;-58
2022/05/04 01:57:12;;;;;;;;;;;;;;;12.92;100.00;100010.91;5091665;28;19970;-58
2022/05/04 01:59:37;;;;;;;;;;;;;;;12.81;100.00;100022.97;5091954;28;19916;-58
2022/05/04 02:02:06;;;;;;;;;;;;;;;12.73;100.00;100022.41;5091545;28;19920;-58
2022/05/04 02:04:31;;;;;;;;;;;;;;;12.66;100.00;100013.81;5091845;28;19916;-58
2022/05/04 02:06:56;;;;;;;;;;;;;;;12.64;100.00;100021.00;5090215;28;19919;-58
2022/05/04 02:09:22;;;;;;;;;;;;;;;12.59;100.00;100020.31;5091892;28;19947;-58
2022/05/04 02:11:47;;;;;;;;;;;;;;;12.58;100.00;100015.91;5091416;28;19912;-58
2022/05/04 02:14:13;;;;;;;;;;;;;;;12.55;100.00;100015.16;5082941;28;19913;-58
2022/05/04 02:16:38;;;;;;;;;;;;;;;12.58;100.00;100009.69;5080150;28;19920;-58
2022/05/04 02:19:03;;;;;;;;;;;;;;;12.55;100.00;100009.84;5112032;28;19916;-58
2022/05/04 02:21:28;;;;;;;;;;;;;;;12.54;100.00;100014.28;5111695;28;19924;-58
2022/05/04 02:23:54;;;;;;;;;;;;;;;12.52;100.00;100023.31;5112056;28;20392;-58
2022/05/04 02:26:19;;;;;;;;;;;;;;;12.35;100.00;100017.75;5115478;28;19963;-58
2022/05/04 02:28:45;;;;;;;;;;;;;;;12.26;100.00;100016.31;5106015;28;19916;-58
2022/05/04 02:31:10;;;;;;;;;;;;;;;12.33;100.00;100004.50;5095209;28;19916;-58
2022/05/04 02:33:35;;;;;;;;;;;;;;;12.30;100.00;100007.28;5095034;28;19912;-58
2022/05/04 02:38:44;;;;;;;;;;;;;;;12.26;100.00;100019.00;5095407;28;20437;-58
2022/05/04 02:41:10;;;;;;;;;;;;;;;12.27;100.00;100014.53;5094808;28;19920;-58
2022/05/04 02:43:35;;;;;;;;;;;;;;;12.19;100.00;100008.63;5095005;28;19916;-58
2022/05/04 02:46:14;;;;;;;;;;;;;;;12.11;100.00;100014.25;5091589;28;19920;-58
2022/05/04 02:48:39;;;;;;;;;;;;;;;12.03;100.00;100020.78;5095174;28;19957;-58
2022/05/04 02:51:05;;;;;;;;;;;;;;;11.97;100.00;100019.25;5091469;28;20371;-58
2022/05/04 02:53:31;;;;;;;;;;;;;;;11.95;100.00;100023.78;5093430;28;19920;-58
2022/05/04 02:55:56;;;;;;;;;;;;;;;11.98;100.00;100023.66;5093549;28;19938;-58
2022/05/04 02:58:21;;;;;;;;;;;;;;;12.00;100.00;100020.91;5093376;28;19916;-58
2022/05/04 03:00:46;;;;;;;;;;;;;;;12.06;100.00;100018.88;5094327;28;19977;-58
2022/05/04 03:03:12;;;;;;;;;;;;;;;12.10;100.00;100017.84;5094455;28;19920;-58
2022/05/04 03:05:37;;;;;;;;;;;;;;;12.18;100.00;100015.75;5094813;28;20313;-58
2022/05/04 03:08:02;;;;;;;;;;;;;;;12.17;100.00;100014.03;5094363;28;19995;-58
2022/05/04 03:10:27;;;;;;;;;;;;;;;12.27;100.00;100014.53;5094442;28;20653;-58
2022/05/04 03:12:53;;;;;;;;;;;;;;;12.23;100.00;100016.44;5094352;28;20513;-58
2022/05/04 03:15:18;;;;;;;;;;;;;;;12.10;100.00;100020.53;5094593;28;19912;-58
2022/05/04 03:17:43;;;;;;;;;;;;;;;12.10;100.00;100023.19;5107654;28;19937;-58
2022/05/04 03:20:10;;;;;;;;;;;;;;;12.11;100.00;100022.25;5114686;28;19955;-58
2022/05/04 03:22:35;;;;;;;;;;;;;;;12.16;100.00;100022.94;5114348;28;19916;-58
2022/05/04 03:25:04;;;;;;;;;;;;;;;12.18;100.00;100018.41;5114769;28;19916;-58
2022/05/04 03:27:29;;;;;;;;;;;;;;;12.25;100.00;100017.25;5114606;28;19918;-58
2022/05/04 03:29:55;;;;;;;;;;;;;;;12.17;100.00;100019.38;5114787;28;19911;-58
2022/05/04 03:32:21;;;;;;;;;;;;;;;12.07;100.00;100023.31;5114500;28;19915;-58
2022/05/04 03:34:47;;;;;;;;;;;;;;;12.09;100.00;100021.47;5114367;28;20299;-58
2022/05/04 03:37:13;;;;;;;;;;;;;;;12.11;100.00;100024.91;5108920;28;19912;-58
2022/05/04 03:39:38;;;;;;;;;;;;;;;12.10;100.00;100015.19;5093292;28;19923;-58
2022/05/04 03:42:04;;;;;;;;;;;;;;;12.12;100.00;100021.34;5089403;28;20295;-58
2022/05/04 03:44:29;;;;;;;;;;;;;;;12.11;100.00;100016.91;5082545;28;20013;-58
2022/05/04 03:46:54;;;;;;;;;;;;;;;12.16;100.00;100016.75;5092211;28;19990;-58
2022/05/04 03:49:22;;;;;;;;;;;;;;;12.17;100.00;100015.81;5093715;28;19920;-58
2022/05/04 03:51:47;;;;;;;;;;;;;;;12.28;100.00;100027.81;5093821;28;19919;-58
2022/05/04 03:54:13;;;;;;;;;;;;;;;12.30;100.00;100025.06;5093873;28;20593;-58
2022/05/04 03:56:38;;;;;;;;;;;;;;;12.30;100.00;100025.94;5093554;28;19912;-58
2022/05/04 03:59:04;;;;;;;;;;;;;;;12.28;100.00;100027.81;5093345;28;19987;-58
2022/05/04 04:01:30;;;;;;;;;;;;;;;12.20;100.00;100027.25;5093634;28;19920;-58
2022/05/04 04:03:55;;;;;;;;;;;;;;;12.30;100.00;100031.28;5093586;28;19965;-58
2022/05/04 04:06:21;;;;;;;;;;;;;;;12.34;100.00;100034.72;5093300;28;19916;-58
2022/05/04 04:08:46;;;;;;;;;;;;;;;12.41;100.00;100029.06;5093383;28;19939;-58
2022/05/04 04:11:12;;;;;;;;;;;;;;;12.45;100.00;100035.13;5092185;28;19912;-58
2022/05/04 04:13:37;;;;;;;;;;;;;;;12.45;100.00;100040.47;5089850;28;19913;-58
2022/05/04 04:16:03;;;;;;;;;;;;;;;12.45;100.00;100036.03;5072953;28;19919;-58
2022/05/04 04:18:28;;;;;;;;;;;;;;;12.42;100.00;100035.25;5112492;28;19968;-58
2022/05/04 04:23:38;;;;;;;;;;;;;;;12.49;100.00;100042.94;5113555;28;19965;-58
2022/05/04 04:26:04;;;;;;;;;;;;;;;12.47;100.00;100041.28;5113544;28;19911;-58
2022/05/04 04:28:34;;;;;;;;;;;;;;;12.49;100.00;100040.28;5113255;28;19956;-58
2022/05/04 04:30:59;;;;;;;;;;;;;;;12.56;100.00;100047.13;5113388;28;19954;-58
2022/05/04 04:33:29;;;;;;;;;;;;;;;12.59;100.00;100044.31;5111870;28;19933;-58
2022/05/04 04:35:54;;;;;;;;;;;;;;;12.57;100.00;100046.19;5113511;28;20020;-58
2022/05/04 04:38:19;;;;;;;;;;;;;;;12.52;100.00;100045.50;5105121;28;20377;-58
2022/05/04 04:40:45;;;;;;;;;;;;;;;12.54;100.00;100048.97;5092821;28;19957;-58
2022/05/04 04:43:11;;;;;;;;;;;;;;;12.55;100.00;100058.69;5086863;28;19962;-58
2022/05/04 04:45:36;;;;;;;;;;;;;;;12.59;100.00;100057.66;5084607;28;19916;-58
2022/05/04 04:48:01;;;;;;;;;;;;;;;12.65;100.00;100049.41;5092068;28;19919;-58
2022/05/04 04:50:27;;;;;;;;;;;;;;;12.72;100.00;100061.56;5093070;28;19993;-58
2022/05/04 04:52:52;;;;;;;;;;;;;;;12.75;100.00;100052.59;5092541;28;19916;-58
2022/05/04 04:55:17;;;;;;;;;;;;;;;12.85;100.00;100051.28;5092589;28;20465;-58
2022/05/04 04:57:43;;;;;;;;;;;;;;;12.92;100.00;100058.09;5092405;28;19977;-58
2022/05/04 05:00:09;;;;;;;;;;;;;;;12.92;100.00;100055.41;5092494;28;19916;-58
2022/05/04 05:02:35;;;;;;;;;;;;;;;12.96;100.00;100060.56;5092161;28;19940;-58
2022/05/04 05:05:01;;;;;;;;;;;;;;;13.05;100.00;100049.53;5092332;28;19969;-58
2022/05/04 05:07:26;;;;;;;;;;;;;;;13.07;100.00;100058.38;5092655;28;20272;-58
2022/05/04 05:09:52;;;;;;;;;;;;;;;13.08;100.00;100054.75;5092420;28;19912;-58
2022/05/04 05:12:17;;;;;;;;;;;;;;;13.17;100.00;100059.72;5092346;28;19958;-58
2022/05/04 05:17:27;;;;;;;;;;;;;;;13.39;100.00;100058.78;5093964;28;19961;-58
2022/05/04 05:19:52;;;;;;;;;;;;;;;13.40;100.00;100060.50;5112880;28;19911;-58
2022/05/04 05:22:17;;;;;;;;;;;;;;;13.43;100.00;100047.91;5112354;28;20294;-58
2022/05/04 05:24:43;;;;;;;;;;;;;;;13.47;98.73;100048.63;5112269;28;20017;-58
2022/05/04 05:27:08;;;;;;;;;;;;;;;13.49;97.64;100047.66;5112583;28;19919;-58
2022/05/04 05:29:34;;;;;;;;;;;;;;;13.52;97.18;100060.00;5112466;28;20369;-58
2022/05/04 05:31:59;;;;;;;;;;;;;;;13.63;97.84;100063.06;5112176;28;19916;-58
2022/05/04 05:34:26;;;;;;;;;;;;;;;13.72;97.86;100052.81;5089128;28;19931;-58
2022/05/04 05:36:51;;;;;;;;;;;;;;;13.87;98.34;100061.97;5089187;28;19921;-58
2022/05/04 05:39:17;;;;;;;;;;;;;;;13.96;97.41;100056.19;5073056;28;19920;-58
2022/05/04 05:41:42;;;;;;;;;;;;;;;14.09;97.68;100065.38;5089797;28;20004;-58
2022/05/04 05:44:07;;;;;;;;;;;;;;;14.10;96.60;100064.47;5084187;28;19912;-58
2022/05/04 05:46:32;;;;;;;;;;;;;;;14.10;95.64;100064.47;5071561;28;19935;-58
2022/05/04 05:48:58;;;;;;;;;;;;;;;14.15;95.35;100068.66;5072008;28;19913;-58
2022/05/04 05:51:23;;;;;;;;;;;;;;;14.20;95.39;100071.97;5071789;28;20268;-58
2022/05/04 05:53:48;;;;;;;;;;;;;;;14.20;95.05;100076.50;5084362;28;19912;-58
2022/05/04 05:56:14;;;;;;;;;;;;;;;14.19;94.97;100080.09;5091821;28;19912;-58
2022/05/04 05:58:39;;;;;;;;;;;;;;;14.19;94.62;100080.09;5093647;28;19919;-59
2022/05/04 06:01:04;;;;;;;;;;;;;;;14.27;94.46;100080.63;5095599;28;20330;-58
2022/05/04 06:03:29;;;;;;;;;;;;;;;14.26;94.58;100081.56;5094999;28;19919;-58
2022/05/04 06:05:55;;;;;;;;;;;;;;;14.33;94.62;100091.06;5094748;28;19912;-58
2022/05/04 06:08:20;;;;;;;;;;;;;;;14.38;95.09;100081.84;5095899;28;19960;-59
2022/05/04 06:10:45;;;;;;;;;;;;;;;14.41;95.38;100091.56;5095641;28;19912;-58
2022/05/04 06:13:11;;;;;;;;;;;;;;;14.44;95.17;100091.41;5095344;28;20363;-59
2022/05/04 06:15:36;;;;;;;;;;;;;;;14.47;96.23;100085.91;5075430;28;19920;-59
2022/05/04 06:18:02;;;;;;;;;;;;;;;14.47;95.71;100091.28;5107226;28;19912;-59
2022/05/04 06:20:28;;;;;;;;;;;;;;;14.49;95.98;100098.31;5115876;28;20285;-59
2022/05/04 06:22:53;;;;;;;;;;;;;;;14.56;95.88;100096.22;5115424;28;19922;-59
2022/05/04 06:25:18;;;;;;;;;;;;;;;14.53;96.92;100101.69;5115736;28;19915;-59
2022/05/04 06:27:44;;;;;;;;;;;;;;;14.49;97.44;100100.09;5115754;28;19912;-59
2022/05/04 06:35:37;;;;;;;;;;;;;;;14.44;100.00;100107.47;5099523;28;19986;-58
2022/05/04 06:38:03;;;;;;;;;;;;;;;14.39;100.00;100104.16;5075048;28;19967;-59
2022/05/04 06:40:28;;;;;;;;;;;;;;;14.38;100.00;100113.13;5074776;28;19919;-59
2022/05/04 06:42:53;;;;;;;;;;;;;;;14.34;100.00;100120.44;5074141;28;19928;-59
2022/05/04 06:45:19;;;;;;;;;;;;;;;14.27;100.00;100118.09;5092216;28;20006;-60
2022/05/04 06:47:44;;;;;;;;;;;;;;;14.27;100.00;100124.31;5095270;28;20291;-60
2022/05/04 06:50:10;;;;;;;;;;;;;;;14.21;100.00;100121.03;5094443;28;19927;-60
2022/05/04 06:52:37;;;;;;;;;;;;;;;14.19;100.00;100118.41;5090568;28;20006;-60
2022/05/04 06:55:03;;;;;;;;;;;;;;;14.11;100.00;100122.38;5074710;28;19956;-60
2022/05/04 06:57:28;;;;;;;;;;;;;;;14.11;100.00;100125.94;5076813;28;20460;-60
2022/05/04 06:59:54;;;;;;;;;;;;;;;14.18;100.00;100127.34;5083502;28;19960;-60
2022/05/04 07:02:19;;;;;;;;;;;;;;;14.13;100.00;100121.38;5074291;28;19917;-60
2022/05/04 07:04:45;;;;;;;;;;;;;;;14.06;100.00;100119.03;5080413;28;20385;-60
2022/05/04 07:07:10;;;;;;;;;;;;;;;14.04;100.00;100126.25;5093963;28;19927;-60
2022/05/04 07:09:35;;;;;;;;;;;;;;;14.04;100.00;100129.81;5086132;28;20014;-60
2022/05/04 07:12:01;;;;;;;;;;;;;;;14.12;100.00;100127.66;5073884;28;20453;-60
2022/05/04 07:14:26;;;;;;;;;;;;;;;14.05;100.00;100136.88;5084818;28;19927;-60
2022/05/04 07:16:51;;;;;;;;;;;;;;;13.99;100.00;100136.28;5100220;28;19916;-61
2022/05/04 07:19:16;;;;;;;;;;;;;;;14.02;100.00;100137.03;5097087;28;19916;-61
2022/05/04 07:21:42;;;;;;;;;;;;;;;14.08;100.00;100141.25;5091475;28;20047;-61
2022/05/04 07:24:07;;;;;;;;;;;;;;;14.10;100.00;100140.22;5087946;28;20003;-61
2022/05/04 07:26:33;;;;;;;;;;;;;;;14.07;100.00;100139.47;5092157;28;19912;-61
2022/05/04 07:28:59;;;;;;;;;;;;;;;13.99;100.00;100137.16;5092855;28;19920;-61
2022/05/04 07:31:24;;;;;;;;;;;;;;;14.05;100.00;100138.69;5089006;28;20287;-61
2022/05/04 07:33:49;;;;;;;;;;;;;;;14.18;100.00;100142.56;5092977;28;19912;-61
2022/05/04 07:36:15;;;;;;;;;;;;;;;14.31;100.00;100133.94;5093654;28;20400;-61
2022/05/04 07:38:40;;;;;;;;;;;;;;;14.39;100.00;100136.25;5088372;28;19955;-61
2022/05/04 07:43:49;;;;;;;;;;;;;;;14.50;100.00;100136.63;5094116;28;19919;-61
2022/05/04 07:46:14;;;;;;;;;;;;;;;14.55;100.00;100144.47;5092447;28;19912;-61
2022/05/04 07:48:39;;;;;;;;;;;;;;;14.54;100.00;100148.94;5085332;28;19920;-61
2022/05/04 07:51:05;;;;;;;;;;;;;;;14.48;100.00;100147.41;5073171;28;20411;-61
2022/05/04 07:53:30;;;;;;;;;;;;;;;14.51;100.00;100152.59;5084201;28;19915;-61
2022/05/04 07:55:55;;;;;;;;;;;;;;;14.59;100.00;100141.56;5081224;28;19962;-61
2022/05/04 07:58:21;;;;;;;;;;;;;;;14.66;100.00;100145.69;5073692;28;20349;-61
2022/05/04 08:06:14;;;;;;;;;;;;;;;14.98;100.00;100142.34;5081505;28;19927;-61
2022/05/04 08:08:39;;;;;;;;;;;;;;;15.19;99.99;100146.63;5093394;28;19912;-61
2022/05/04 08:11:05;;;;;;;;;;;;;;;15.36;99.01;100141.31;5077300;28;20011;-61
2022/05/04 08:13:30;;;;;;;;;;;;;;;15.38;97.64;100147.47;5074266;28;19998;-61
2022/05/04 08:15:56;;;;;;;;;;;;;;;15.58;97.46;100144.66;5072314;28;20364;-62
2022/05/04 08:18:22;;;;;;;;;;;;;;;15.71;97.34;100145.81;5110388;28;20326;-61
2022/05/04 08:20:48;;;;;;;;;;;;;;;15.71;94.20;100147.63;5100690;28;20011;-61
2022/05/04 08:23:14;;;;;;;;;;;;;;;15.73;92.56;100149.25;5072255;28;19925;-62
2022/05/04 08:25:39;;;;;;;;;;;;;;;15.83;92.08;100149.69;5088961;28;19930;-62
2022/05/04 08:28:04;;;;;;;;;;;;;;;15.91;91.80;100154.63;5092821;28;19939;-62
2022/05/04 08:30:30;;;;;;;;;;;;;;;16.04;93.35;100153.03;5090473;28;20002;-62
2022/05/04 08:32:55;;;;;;;;;;;;;;;16.19;94.46;100146.88;5092161;28;19972;-62
2022/05/04 08:35:20;;;;;;;;;;;;;;;16.37;95.29;100151.25;5093380;28;19981;-62
2022/05/04 08:37:46;;;;;;;;;;;;;;;16.53;92.35;100158.41;5092758;28;19982;-62
2022/05/04 08:40:12;;;;;;;;;;;;;;;16.76;91.65;100151.78;5083001;28;19923;-62
2022/05/04 08:42:39;;;;;;;;;;;;;;;16.77;88.83;100124.81;5074883;28;20000;-62
2022/05/04 08:45:06;;;;;;;;;;;;;;;16.99;86.21;100152.22;5088476;28;19918;-62
2022/05/04 08:47:32;;;;;;;;;;;;;;;17.20;87.00;100149.28;5091760;28;19916;-61
2022/05/04 08:49:57;;;;;;;;;;;;;;;17.10;80.40;100143.53;5091989;28;19912;-62
2022/05/04 08:52:23;;;;;;;;;;;;;;;17.16;81.32;100145.91;5091672;28;20317;-62
2022/05/04 08:54:52;;;;;;;;;;;;;;;17.16;80.42;100143.22;5080327;28;19916;-62
2022/05/04 08:57:17;;;;;;;;;;;;;;;17.22;82.61;100102.53;5072084;28;19912;-62
2022/05/04 08:59:43;;;;;;;;;;;;;;;17.65;83.38;100134.03;5071397;28;19983;-62
2022/05/04 09:02:10;;;;;;;;;;;;;;;17.86;83.56;100140.81;5072199;28;19985;-62
2022/05/04 09:04:35;;;;;;;;;;;;;;;18.13;83.36;100136.47;5074190;28;19917;-64
2022/05/04 09:07:01;;;;;;;;;;;;;;;18.33;82.10;100141.47;5083505;28;19965;-62
2022/05/04 09:09:26;;;;;;;;;;;;;;;18.32;79.70;100130.78;5089065;28;19986;-63
2022/05/04 09:11:51;;;;;;;;;;;;;;;18.59;78.83;100130.91;5072720;28;19923;-63
2022/05/04 09:14:20;;;;;;;;;;;;;;;18.75;80.10;100127.16;5080192;28;20009;-62
2022/05/04 09:16:45;;;;;;;;;;;;;;;18.80;78.26;100126.84;5090367;28;19919;-62
2022/05/04 09:19:12;;;;;;;;;;;;;;;19.08;77.49;100134.88;5089687;28;19912;-62
2022/05/04 09:21:41;;;;;;;;;;;;;;;19.23;78.18;100132.06;5090264;28;19924;-62
2022/05/04 09:24:07;;;;;;;;;;;;;;;19.26;78.52;100133.66;5091714;28;19916;-63
2022/05/04 09:26:42;;;;;;;;;;;;;;;19.40;75.13;100139.06;5091721;28;19919;-62
2022/05/04 09:29:10;;;;;;;;;;;;;;;19.51;76.94;100131.97;5076969;28;19972;-62
2022/05/04 09:31:38;;;;;;;;;;;;;;;19.63;74.72;100133.88;5072045;28;19912;-62
2022/05/04 09:34:09;;;;;;;;;;;;;;;19.92;74.33;100131.84;5071764;28;20271;-62
2022/05/04 09:36:34;;;;;;;;;;;;;;;20.24;74.18;100127.81;5072068;28;19962;-62
2022/05/04 09:44:54;;;;;;;;;;;;;;;21.85;65.88;100120.34;5083750;28;19919;-62
2022/05/04 09:47:20;;;;;;;;;;;;;;;21.97;63.53;100116.69;5091789;28;19961;-62
2022/05/04 09:49:48;;;;;;;;;;;;;;;22.24;63.28;100117.22;5092414;28;20095;-62
2022/05/04 09:52:14;;;;;;;;;;;;;;;22.10;61.38;100114.75;5091881;28;19970;-62
2022/05/04 09:54:40;;;;;;;;;;;;;;;21.99;63.27;100122.84;5091687;28;19916;-62
2022/05/04 09:57:07;;;;;;;;;;;;;;;22.14;60.47;100118.97;5090840;28;19926;-62
2022/05/04 09:59:34;;;;;;;;;;;;;;;22.59;61.13;100118.03;5091131;28;19916;-62
2022/05/04 10:02:00;;;;;;;;;;;;;;;22.81;62.28;100120.75;5091595;28;20027;-62
2022/05/04 10:04:26;;;;;;;;;;;;;;;23.50;57.83;100121.38;5091862;28;19915;-62
2022/05/04 10:06:55;;;;;;;;;;;;;;;23.94;52.15;100115.72;5087418;28;20298;-62
2022/05/04 10:09:21;;;;;;;;;;;;;;;24.25;51.29;100114.88;5071625;28;20295;-62
2022/05/04 10:11:47;;;;;;;;;;;;;;;24.19;53.61;100107.22;5071666;28;19916;-62
2022/05/04 10:14:15;;;;;;;;;;;;;;;24.61;54.28;100106.19;5079730;28;19916;-62
2022/05/04 10:16:56;;;;;;;;;;;;;;;24.22;53.53;100115.09;5095065;28;20367;-62
2022/05/04 10:19:25;;;;;;;;;;;;;;;24.46;53.51;100104.81;5110851;28;19912;-62
2022/05/04 10:21:52;;;;;;;;;;;;;;;24.78;53.53;100094.66;5110265;28;19920;-62
2022/05/04 10:24:19;;;;;;;;;;;;;;;25.62;52.31;100092.28;5075440;28;19938;-62
2022/05/04 10:26:45;;;;;;;;;;;;;;;25.58;48.10;100087.28;5070466;28;19913;-62
2022/05/04 10:32:32;;;;;;;;;;;;;;;24.52;47.71;100085.22;5071345;28;19978;-62
2022/05/04 10:35:16;;;;;;;;;;;;;;;25.00;46.31;100083.56;5070474;28;20012;-61
2022/05/04 10:37:57;;;;;;;;;;;;;;;25.33;49.76;100091.38;5069951;28;19995;-61
2022/05/04 10:40:26;;;;;;;;;;;;;;;25.66;46.52;100074.66;5069941;28;19963;-61
2022/05/04 10:42:54;;;;;;;;;;;;;;;25.34;46.29;100082.19;5069792;28;19967;-61
2022/05/04 10:45:22;;;;;;;;;;;;;;;25.81;48.35;100084.09;5078579;28;19955;-61
2022/05/04 10:47:48;;;;;;;;;;;;;;;26.00;48.24;100072.31;5074512;28;19912;-62
2022/05/04 10:50:16;;;;;;;;;;;;;;;26.29;44.39;100078.63;5074734;28;19997;-61
2022/05/04 10:52:48;;;;;;;;;;;;;;;26.60;45.07;100066.44;5088048;28;20374;-61
2022/05/04 10:55:13;;;;;;;;;;;;;;;26.37;45.98;100064.22;5094853;28;19923;-61
2022/05/04 10:57:40;;;;;;;;;;;;;;;26.45;46.03;100067.94;5087525;28;19912;-61
2022/05/04 11:00:06;;;;;;;;;;;;;;;26.78;43.70;100058.34;5085607;28;20461;-61
2022/05/04 11:02:31;;;;;;;;;;;;;;;27.24;44.15;100058.19;5094742;28;19920;-61
2022/05/04 11:04:58;;;;;;;;;;;;;;;27.33;44.22;100051.81;5094728;28;19991;-61
2022/05/04 11:07:28;;;;;;;;;;;;;;;27.26;40.65;100053.44;5094889;28;19916;-61
2022/05/04 11:09:59;;;;;;;;;;;;;;;27.38;42.74;100043.19;5094524;28;19948;-61
2022/05/04 11:12:25;;;;;;;;;;;;;;;27.80;43.33;100046.97;5094579;28;19974;-61
2022/05/04 11:14:51;;;;;;;;;;;;;;;27.98;41.39;100050.56;5079037;28;19955;-61
2022/05/04 11:17:16;;;;;;;;;;;;;;;27.72;43.58;100039.59;5101543;28;20016;-62
2022/05/04 11:19:45;;;;;;;;;;;;;;;28.04;43.45;100026.19;5114697;28;20383;-62
2022/05/04 11:22:11;;;;;;;;;;;;;;;28.41;42.62;100029.50;5114581;28;19924;-62
2022/05/04 11:24:37;;;;;;;;;;;;;;;27.89;41.16;100037.84;5114855;28;20017;-62
2022/05/04 11:27:03;;;;;;;;;;;;;;;28.20;42.79;100030.91;5114804;28;19916;-64
2022/05/04 11:29:29;;;;;;;;;;;;;;;28.41;40.62;100026.75;5114450;28;20375;-63
2022/05/04 11:31:56;;;;;;;;;;;;;;;28.73;39.57;100022.50;5114565;28;19912;-64
2022/05/04 11:34:23;;;;;;;;;;;;;;;28.76;38.98;100024.91;5114503;28;19916;-64
2022/05/04 11:36:48;;;;;;;;;;;;;;;29.02;40.18;100028.41;5114916;28;19935;-64
2022/05/04 11:39:18;;;;;;;;;;;;;;;28.74;41.08;100021.47;5086290;28;19913;-64
2022/05/04 11:41:51;;;;;;;;;;;;;;;28.60;37.66;100019.38;5076352;28;19924;-64
2022/05/04 11:44:23;;;;;;;;;;;;;;;28.61;41.51;100026.53;5082294;28;20488;-64
2022/05/04 11:46:53;;;;;;;;;;;;;;;28.82;40.65;100019.63;5092408;28;19912;-64
2022/05/04 11:49:19;;;;;;;;;;;;;;;29.39;40.82;100023.41;5093798;28;19912;-64
2022/05/04 11:51:44;;;;;;;;;;;;;;;29.67;37.45;100022.06;5093812;28;19995;-64
2022/05/04 11:54:09;;;;;;;;;;;;;;;29.62;37.40;100018.97;5093746;28;20011;-64
2022/05/04 11:56:35;;;;;;;;;;;;;;;29.68;40.91;100018.31;5093513;28;19916;-64
2022/05/04 11:59:00;;;;;;;;;;;;;;;29.39;39.68;100017.91;5093550;28;19912;-63
2022/05/04 12:01:26;;;;;;;;;;;;;;;29.46;39.79;100018.94;5093288;28;20259;-63
2022/05/04 12:03:51;;;;;;;;;;;;;;;29.62;36.24;100008.00;5093646;28;19916;-63
2022/05/04 12:06:17;;;;;;;;;;;;;;;29.83;35.04;100013.84;5093636;28;19958;-63
2022/05/04 12:08:43;;;;;;;;;;;;;;;30.18;36.32;100002.44;5093561;28;19963;-63
2022/05/04 12:11:09;;;;;;;;;;;;;;;30.22;37.48;100001.13;5093220;28;19984;-63
2022/05/04 12:13:38;;;;;;;;;;;;;;;30.15;36.81;99994.56;5090425;28;20389;-63
2022/05/04 12:16:04;;;;;;;;;;;;;;;30.14;38.88;99994.75;5090226;28;19969;-63
2022/05/04 12:18:31;;;;;;;;;;;;;;;30.37;37.90;99987.53;5113169;28;19918;-63
2022/05/04 12:20:57;;;;;;;;;;;;;;;30.17;37.17;99991.66;5113497;28;19930;-63
2022/05/04 12:23:22;;;;;;;;;;;;;;;30.39;37.40;99990.94;5113645;28;20476;-62
2022/05/04 12:25:48;;;;;;;;;;;;;;;30.82;34.08;99994.03;5112510;28;19969;-62
2022/05/04 12:28:13;;;;;;;;;;;;;;;30.44;34.44;99994.88;5095867;28;19943;-62
2022/05/04 12:33:28;;;;;;;;;;;;;;;29.27;39.43;99991.84;5073506;28;19975;-62
2022/05/04 12:35:57;;;;;;;;;;;;;;;29.43;38.45;99986.38;5072587;28;19912;-62
2022/05/04 12:38:22;;;;;;;;;;;;;;;28.69;36.57;99980.03;5073063;28;19916;-62
2022/05/04 12:40:49;;;;;;;;;;;;;;;28.48;38.44;99975.81;5072479;28;19912;-61
2022/05/04 12:43:14;;;;;;;;;;;;;;;29.15;37.12;99984.97;5073230;28;20061;-62
2022/05/04 12:45:39;;;;;;;;;;;;;;;28.67;41.46;99976.59;5092808;28;20382;-64
2022/05/04 12:48:07;;;;;;;;;;;;;;;28.84;38.42;99973.75;5092929;28;19916;-64
2022/05/04 12:50:33;;;;;;;;;;;;;;;28.76;39.97;99979.22;5092521;28;19916;-65
2022/05/04 12:52:58;;;;;;;;;;;;;;;29.05;36.35;99973.28;5092856;28;19940;-65
2022/05/04 12:58:08;;;;;;;;;;;;;;;29.02;34.09;99965.41;5092891;28;19923;-65
2022/05/04 13:00:36;;;;;;;;;;;;;;;29.31;35.90;99958.44;5092593;28;19912;-66
2022/05/04 13:03:02;;;;;;;;;;;;;;;29.49;35.46;99953.66;5085060;28;20388;-66